sensor_id;sensor_type;location;lat;lon;timestamp;P1;durP1;ratioP1;P2;durP2;ratioP2
16775;SDS011;8505;49.456;8.164;2022-12-18T00:01:26;72.70;;;28.90;;
16775;SDS011;8505;49.456;8.164;2022-12-18T00:03:55;71.25;;;27.88;;
16775;SDS011;8505;49.456;8.164;2022-12-18T00:06:23;74.25;;;28.85;;
16775;SDS011;8505;49.456;8.164;2022-12-18T00:08:53;76.30;;;29.60;;
16775;SDS011;8505;49.456;8.164;2022-12-18T00:11:23;76.77;;;27.43;;
16775;SDS011;8505;49.456;8.164;2022-12-18T00:13:53;69.40;;;27.80;;
16775;SDS011;8505;49.456;8.164;2022-12-18T00:16:23;72.47;;;26.83;;
16775;SDS011;8505;49.456;8.164;2022-12-18T00:18:56;74.63;;;28.73;;
16775;SDS011;8505;49.456;8.164;2022-12-18T00:21:26;75.10;;;29.27;;
16775;SDS011;8505;49.456;8.164;2022-12-18T00:23:54;73.22;;;29.27;;
16775;SDS011;8505;49.456;8.164;2022-12-18T00:26:23;75.05;;;29.48;;
16775;SDS011;8505;49.456;8.164;2022-12-18T00:28:52;78.88;;;30.20;;
16775;SDS011;8505;49.456;8.164;2022-12-18T00:31:22;77.07;;;28.50;;
16775;SDS011;8505;49.456;8.164;2022-12-18T00:33:51;83.15;;;31.58;;
16775;SDS011;8505;49.456;8.164;2022-12-18T00:36:23;79.50;;;30.60;;
16775;SDS011;8505;49.456;8.164;2022-12-18T00:38:54;80.03;;;29.57;;
16775;SDS011;8505;49.456;8.164;2022-12-18T00:41:23;74.75;;;29.33;;
16775;SDS011;8505;49.456;8.164;2022-12-18T00:44:09;77.47;;;28.73;;
16775;SDS011;8505;49.456;8.164;2022-12-18T00:46:38;76.30;;;29.50;;
16775;SDS011;8505;49.456;8.164;2022-12-18T00:49:08;72.15;;;27.27;;
16775;SDS011;8505;49.456;8.164;2022-12-18T00:51:39;76.22;;;28.63;;
16775;SDS011;8505;49.456;8.164;2022-12-18T00:54:08;70.78;;;28.48;;
16775;SDS011;8505;49.456;8.164;2022-12-18T00:56:36;70.32;;;28.48;;
16775;SDS011;8505;49.456;8.164;2022-12-18T00:59:14;67.07;;;26.87;;
16775;SDS011;8505;49.456;8.164;2022-12-18T01:01:41;70.20;;;27.30;;
16775;SDS011;8505;49.456;8.164;2022-12-18T01:04:11;69.97;;;29.13;;
16775;SDS011;8505;49.456;8.164;2022-12-18T01:06:39;69.28;;;27.70;;
16775;SDS011;8505;49.456;8.164;2022-12-18T01:09:07;69.32;;;26.73;;
16775;SDS011;8505;49.456;8.164;2022-12-18T01:11:34;71.93;;;27.63;;
16775;SDS011;8505;49.456;8.164;2022-12-18T01:14:02;72.10;;;28.23;;
16775;SDS011;8505;49.456;8.164;2022-12-18T01:16:30;72.85;;;28.20;;
16775;SDS011;8505;49.456;8.164;2022-12-18T01:18:57;71.80;;;28.27;;
16775;SDS011;8505;49.456;8.164;2022-12-18T01:21:26;70.72;;;27.75;;
16775;SDS011;8505;49.456;8.164;2022-12-18T01:23:55;77.18;;;29.13;;
16775;SDS011;8505;49.456;8.164;2022-12-18T01:26:24;77.00;;;29.20;;
16775;SDS011;8505;49.456;8.164;2022-12-18T01:28:55;77.15;;;30.33;;
16775;SDS011;8505;49.456;8.164;2022-12-18T01:31:24;76.82;;;29.45;;
16775;SDS011;8505;49.456;8.164;2022-12-18T01:33:54;74.57;;;28.83;;
16775;SDS011;8505;49.456;8.164;2022-12-18T01:36:24;74.33;;;29.03;;
16775;SDS011;8505;49.456;8.164;2022-12-18T01:38:55;76.63;;;28.70;;
16775;SDS011;8505;49.456;8.164;2022-12-18T01:41:24;72.03;;;28.42;;
16775;SDS011;8505;49.456;8.164;2022-12-18T01:47:15;69.82;;;27.20;;
16775;SDS011;8505;49.456;8.164;2022-12-18T01:49:45;74.05;;;27.75;;
16775;SDS011;8505;49.456;8.164;2022-12-18T01:52:15;78.90;;;29.23;;
16775;SDS011;8505;49.456;8.164;2022-12-18T01:54:45;75.22;;;29.13;;
16775;SDS011;8505;49.456;8.164;2022-12-18T01:57:14;75.35;;;29.52;;
16775;SDS011;8505;49.456;8.164;2022-12-18T01:59:42;75.38;;;29.65;;
16775;SDS011;8505;49.456;8.164;2022-12-18T02:02:14;74.47;;;28.80;;
16775;SDS011;8505;49.456;8.164;2022-12-18T02:04:43;74.82;;;29.50;;
16775;SDS011;8505;49.456;8.164;2022-12-18T02:07:16;75.20;;;29.67;;
16775;SDS011;8505;49.456;8.164;2022-12-18T02:09:53;74.93;;;28.90;;
16775;SDS011;8505;49.456;8.164;2022-12-18T02:12:27;74.33;;;29.97;;
16775;SDS011;8505;49.456;8.164;2022-12-18T02:15:03;75.13;;;29.30;;
16775;SDS011;8505;49.456;8.164;2022-12-18T02:17:37;77.95;;;29.25;;
16775;SDS011;8505;49.456;8.164;2022-12-18T02:20:12;73.30;;;29.48;;
16775;SDS011;8505;49.456;8.164;2022-12-18T02:22:48;74.77;;;28.90;;
16775;SDS011;8505;49.456;8.164;2022-12-18T02:25:31;80.15;;;29.45;;
16775;SDS011;8505;49.456;8.164;2022-12-18T02:28:28;81.90;;;29.38;;
16775;SDS011;8505;49.456;8.164;2022-12-18T02:30:59;78.15;;;29.88;;
16775;SDS011;8505;49.456;8.164;2022-12-18T02:33:31;83.70;;;29.98;;
16775;SDS011;8505;49.456;8.164;2022-12-18T02:36:02;87.03;;;31.00;;
16775;SDS011;8505;49.456;8.164;2022-12-18T02:38:31;79.35;;;29.45;;
16775;SDS011;8505;49.456;8.164;2022-12-18T02:41:01;85.20;;;31.00;;
16775;SDS011;8505;49.456;8.164;2022-12-18T02:43:31;79.68;;;29.38;;
16775;SDS011;8505;49.456;8.164;2022-12-18T02:45:59;80.68;;;29.52;;
16775;SDS011;8505;49.456;8.164;2022-12-18T02:48:48;84.23;;;29.90;;
16775;SDS011;8505;49.456;8.164;2022-12-18T02:51:21;84.70;;;30.95;;
16775;SDS011;8505;49.456;8.164;2022-12-18T02:53:57;77.63;;;29.58;;
16775;SDS011;8505;49.456;8.164;2022-12-18T02:56:34;76.37;;;30.03;;
16775;SDS011;8505;49.456;8.164;2022-12-18T02:59:08;80.53;;;30.23;;
16775;SDS011;8505;49.456;8.164;2022-12-18T03:01:42;80.13;;;30.33;;
16775;SDS011;8505;49.456;8.164;2022-12-18T03:04:17;77.38;;;29.48;;
16775;SDS011;8505;49.456;8.164;2022-12-18T03:06:53;70.10;;;26.98;;
16775;SDS011;8505;49.456;8.164;2022-12-18T03:09:24;76.10;;;29.48;;
16775;SDS011;8505;49.456;8.164;2022-12-18T03:11:58;73.55;;;28.52;;
16775;SDS011;8505;49.456;8.164;2022-12-18T03:14:50;76.72;;;29.20;;
16775;SDS011;8505;49.456;8.164;2022-12-18T03:17:24;71.32;;;28.05;;
16775;SDS011;8505;49.456;8.164;2022-12-18T03:19:54;73.60;;;28.17;;
16775;SDS011;8505;49.456;8.164;2022-12-18T03:22:26;79.45;;;29.45;;
16775;SDS011;8505;49.456;8.164;2022-12-18T03:24:56;81.88;;;30.00;;
16775;SDS011;8505;49.456;8.164;2022-12-18T03:27:27;79.05;;;29.65;;
16775;SDS011;8505;49.456;8.164;2022-12-18T03:30:01;80.47;;;31.20;;
16775;SDS011;8505;49.456;8.164;2022-12-18T03:32:35;78.00;;;28.63;;
16775;SDS011;8505;49.456;8.164;2022-12-18T03:35:07;84.82;;;30.00;;
16775;SDS011;8505;49.456;8.164;2022-12-18T03:37:40;83.10;;;30.15;;
16775;SDS011;8505;49.456;8.164;2022-12-18T03:40:08;87.57;;;31.08;;
16775;SDS011;8505;49.456;8.164;2022-12-18T03:42:37;80.22;;;30.33;;
16775;SDS011;8505;49.456;8.164;2022-12-18T03:45:14;79.68;;;29.83;;
16775;SDS011;8505;49.456;8.164;2022-12-18T03:47:52;80.72;;;31.50;;
16775;SDS011;8505;49.456;8.164;2022-12-18T03:50:28;81.03;;;30.55;;
16775;SDS011;8505;49.456;8.164;2022-12-18T03:53:07;77.37;;;29.93;;
16775;SDS011;8505;49.456;8.164;2022-12-18T03:55:42;77.70;;;29.50;;
16775;SDS011;8505;49.456;8.164;2022-12-18T03:58:12;72.68;;;28.63;;
16775;SDS011;8505;49.456;8.164;2022-12-18T04:00:44;70.70;;;27.92;;
16775;SDS011;8505;49.456;8.164;2022-12-18T04:03:15;75.35;;;29.35;;
16775;SDS011;8505;49.456;8.164;2022-12-18T04:05:52;72.30;;;28.60;;
16775;SDS011;8505;49.456;8.164;2022-12-18T04:08:22;70.75;;;27.67;;
16775;SDS011;8505;49.456;8.164;2022-12-18T04:10:51;70.37;;;28.23;;
16775;SDS011;8505;49.456;8.164;2022-12-18T04:13:23;72.88;;;28.63;;
16775;SDS011;8505;49.456;8.164;2022-12-18T04:15:52;72.38;;;28.65;;
16775;SDS011;8505;49.456;8.164;2022-12-18T04:18:20;71.22;;;27.75;;
16775;SDS011;8505;49.456;8.164;2022-12-18T04:20:48;72.32;;;28.27;;
16775;SDS011;8505;49.456;8.164;2022-12-18T04:23:15;72.65;;;28.73;;
16775;SDS011;8505;49.456;8.164;2022-12-18T04:25:43;70.85;;;28.70;;
16775;SDS011;8505;49.456;8.164;2022-12-18T04:28:11;72.10;;;28.23;;
16775;SDS011;8505;49.456;8.164;2022-12-18T04:30:39;73.90;;;29.08;;
16775;SDS011;8505;49.456;8.164;2022-12-18T04:33:09;79.00;;;29.60;;
16775;SDS011;8505;49.456;8.164;2022-12-18T04:35:37;74.90;;;29.75;;
16775;SDS011;8505;49.456;8.164;2022-12-18T04:38:05;70.18;;;28.73;;
16775;SDS011;8505;49.456;8.164;2022-12-18T04:40:33;74.70;;;29.00;;
16775;SDS011;8505;49.456;8.164;2022-12-18T04:43:01;69.85;;;27.80;;
16775;SDS011;8505;49.456;8.164;2022-12-18T04:45:29;74.45;;;29.27;;
16775;SDS011;8505;49.456;8.164;2022-12-18T04:47:57;77.43;;;29.40;;
16775;SDS011;8505;49.456;8.164;2022-12-18T04:50:27;74.95;;;29.80;;
16775;SDS011;8505;49.456;8.164;2022-12-18T04:52:55;76.68;;;29.73;;
16775;SDS011;8505;49.456;8.164;2022-12-18T04:55:26;88.68;;;31.92;;
16775;SDS011;8505;49.456;8.164;2022-12-18T04:57:54;80.05;;;30.95;;
16775;SDS011;8505;49.456;8.164;2022-12-18T05:00:22;77.82;;;29.70;;
16775;SDS011;8505;49.456;8.164;2022-12-18T05:02:50;81.88;;;30.58;;
16775;SDS011;8505;49.456;8.164;2022-12-18T05:05:18;76.97;;;29.17;;
16775;SDS011;8505;49.456;8.164;2022-12-18T05:07:47;78.57;;;30.50;;
16775;SDS011;8505;49.456;8.164;2022-12-18T05:10:14;83.07;;;30.90;;
16775;SDS011;8505;49.456;8.164;2022-12-18T05:12:42;81.97;;;31.80;;
16775;SDS011;8505;49.456;8.164;2022-12-18T05:15:42;85.15;;;31.63;;
16775;SDS011;8505;49.456;8.164;2022-12-18T05:18:09;80.70;;;30.83;;
16775;SDS011;8505;49.456;8.164;2022-12-18T05:20:37;80.80;;;30.97;;
16775;SDS011;8505;49.456;8.164;2022-12-18T05:23:04;82.30;;;31.40;;
16775;SDS011;8505;49.456;8.164;2022-12-18T05:25:32;81.70;;;30.58;;
16775;SDS011;8505;49.456;8.164;2022-12-18T05:28:00;77.32;;;31.08;;
16775;SDS011;8505;49.456;8.164;2022-12-18T05:30:27;86.95;;;32.47;;
16775;SDS011;8505;49.456;8.164;2022-12-18T05:32:56;83.00;;;30.92;;
16775;SDS011;8505;49.456;8.164;2022-12-18T05:35:24;78.95;;;30.42;;
16775;SDS011;8505;49.456;8.164;2022-12-18T05:37:51;81.95;;;30.92;;
16775;SDS011;8505;49.456;8.164;2022-12-18T05:40:19;82.97;;;31.67;;
16775;SDS011;8505;49.456;8.164;2022-12-18T05:42:46;81.28;;;31.75;;
16775;SDS011;8505;49.456;8.164;2022-12-18T05:45:14;84.53;;;31.70;;
16775;SDS011;8505;49.456;8.164;2022-12-18T05:47:42;82.72;;;31.42;;
16775;SDS011;8505;49.456;8.164;2022-12-18T05:50:10;78.75;;;30.88;;
16775;SDS011;8505;49.456;8.164;2022-12-18T05:52:38;80.72;;;30.80;;
16775;SDS011;8505;49.456;8.164;2022-12-18T05:55:06;80.15;;;31.38;;
16775;SDS011;8505;49.456;8.164;2022-12-18T05:57:34;75.28;;;30.20;;
16775;SDS011;8505;49.456;8.164;2022-12-18T06:00:02;82.20;;;31.40;;
16775;SDS011;8505;49.456;8.164;2022-12-18T06:02:30;85.13;;;31.90;;
16775;SDS011;8505;49.456;8.164;2022-12-18T06:04:58;79.20;;;31.80;;
16775;SDS011;8505;49.456;8.164;2022-12-18T06:07:27;83.22;;;32.38;;
16775;SDS011;8505;49.456;8.164;2022-12-18T06:09:54;81.35;;;31.17;;
16775;SDS011;8505;49.456;8.164;2022-12-18T06:12:22;80.38;;;31.73;;
16775;SDS011;8505;49.456;8.164;2022-12-18T06:14:50;74.97;;;29.63;;
16775;SDS011;8505;49.456;8.164;2022-12-18T06:17:17;76.40;;;30.33;;
16775;SDS011;8505;49.456;8.164;2022-12-18T06:19:45;81.10;;;30.77;;
16775;SDS011;8505;49.456;8.164;2022-12-18T06:22:12;78.15;;;30.98;;
16775;SDS011;8505;49.456;8.164;2022-12-18T06:24:41;78.97;;;30.73;;
16775;SDS011;8505;49.456;8.164;2022-12-18T06:27:09;81.38;;;33.22;;
16775;SDS011;8505;49.456;8.164;2022-12-18T06:29:37;81.55;;;32.65;;
16775;SDS011;8505;49.456;8.164;2022-12-18T06:32:05;83.90;;;32.33;;
16775;SDS011;8505;49.456;8.164;2022-12-18T06:34:32;77.20;;;31.33;;
16775;SDS011;8505;49.456;8.164;2022-12-18T06:37:00;77.97;;;30.33;;
16775;SDS011;8505;49.456;8.164;2022-12-18T06:39:27;78.30;;;31.25;;
16775;SDS011;8505;49.456;8.164;2022-12-18T06:41:56;76.03;;;30.80;;
16775;SDS011;8505;49.456;8.164;2022-12-18T06:44:24;75.63;;;30.70;;
16775;SDS011;8505;49.456;8.164;2022-12-18T06:46:52;79.22;;;31.73;;
16775;SDS011;8505;49.456;8.164;2022-12-18T06:49:19;81.22;;;32.15;;
16775;SDS011;8505;49.456;8.164;2022-12-18T06:51:52;80.03;;;31.98;;
16775;SDS011;8505;49.456;8.164;2022-12-18T06:54:20;79.07;;;31.70;;
16775;SDS011;8505;49.456;8.164;2022-12-18T06:56:49;82.15;;;32.20;;
16775;SDS011;8505;49.456;8.164;2022-12-18T06:59:18;74.82;;;31.58;;
16775;SDS011;8505;49.456;8.164;2022-12-18T07:01:45;77.25;;;31.48;;
16775;SDS011;8505;49.456;8.164;2022-12-18T07:04:13;75.97;;;31.27;;
16775;SDS011;8505;49.456;8.164;2022-12-18T07:06:41;76.97;;;31.27;;
16775;SDS011;8505;49.456;8.164;2022-12-18T07:09:08;78.43;;;31.27;;
16775;SDS011;8505;49.456;8.164;2022-12-18T07:11:36;72.63;;;30.75;;
16775;SDS011;8505;49.456;8.164;2022-12-18T07:14:03;78.10;;;31.48;;
16775;SDS011;8505;49.456;8.164;2022-12-18T07:16:32;76.25;;;31.45;;
16775;SDS011;8505;49.456;8.164;2022-12-18T07:19:00;79.88;;;32.95;;
16775;SDS011;8505;49.456;8.164;2022-12-18T07:21:28;83.30;;;33.58;;
16775;SDS011;8505;49.456;8.164;2022-12-18T07:23:55;79.70;;;32.75;;
16775;SDS011;8505;49.456;8.164;2022-12-18T07:26:23;80.53;;;32.28;;
16775;SDS011;8505;49.456;8.164;2022-12-18T07:28:54;73.70;;;31.08;;
16775;SDS011;8505;49.456;8.164;2022-12-18T07:31:23;74.82;;;31.27;;
16775;SDS011;8505;49.456;8.164;2022-12-18T07:33:54;75.07;;;31.95;;
16775;SDS011;8505;49.456;8.164;2022-12-18T07:36:22;78.32;;;32.97;;
16775;SDS011;8505;49.456;8.164;2022-12-18T07:38:50;77.72;;;33.08;;
16775;SDS011;8505;49.456;8.164;2022-12-18T07:41:18;73.20;;;32.05;;
16775;SDS011;8505;49.456;8.164;2022-12-18T07:43:47;75.05;;;32.58;;
16775;SDS011;8505;49.456;8.164;2022-12-18T07:46:15;90.93;;;38.28;;
16775;SDS011;8505;49.456;8.164;2022-12-18T07:48:43;78.03;;;33.87;;
16775;SDS011;8505;49.456;8.164;2022-12-18T07:51:17;76.55;;;35.58;;
16775;SDS011;8505;49.456;8.164;2022-12-18T07:53:45;72.55;;;33.40;;
16775;SDS011;8505;49.456;8.164;2022-12-18T07:56:18;68.45;;;32.55;;
16775;SDS011;8505;49.456;8.164;2022-12-18T07:58:56;67.50;;;31.17;;
16775;SDS011;8505;49.456;8.164;2022-12-18T08:01:24;71.70;;;32.03;;
16775;SDS011;8505;49.456;8.164;2022-12-18T08:03:52;70.63;;;31.55;;
16775;SDS011;8505;49.456;8.164;2022-12-18T08:06:24;67.57;;;30.90;;
16775;SDS011;8505;49.456;8.164;2022-12-18T08:08:52;68.13;;;31.80;;
16775;SDS011;8505;49.456;8.164;2022-12-18T08:11:20;65.15;;;30.85;;
16775;SDS011;8505;49.456;8.164;2022-12-18T08:13:49;70.13;;;30.60;;
16775;SDS011;8505;49.456;8.164;2022-12-18T08:16:17;69.47;;;30.88;;
16775;SDS011;8505;49.456;8.164;2022-12-18T08:18:46;62.35;;;29.48;;
16775;SDS011;8505;49.456;8.164;2022-12-18T08:21:15;66.40;;;30.80;;
16775;SDS011;8505;49.456;8.164;2022-12-18T08:23:47;72.55;;;33.30;;
16775;SDS011;8505;49.456;8.164;2022-12-18T08:26:17;70.30;;;32.85;;
16775;SDS011;8505;49.456;8.164;2022-12-18T08:28:46;68.88;;;31.48;;
16775;SDS011;8505;49.456;8.164;2022-12-18T08:31:14;63.72;;;30.50;;
16775;SDS011;8505;49.456;8.164;2022-12-18T08:33:42;64.40;;;30.40;;
16775;SDS011;8505;49.456;8.164;2022-12-18T08:36:10;63.28;;;28.92;;
16775;SDS011;8505;49.456;8.164;2022-12-18T08:38:38;65.95;;;29.85;;
16775;SDS011;8505;49.456;8.164;2022-12-18T08:41:09;61.83;;;28.97;;
16775;SDS011;8505;49.456;8.164;2022-12-18T08:43:37;67.18;;;30.40;;
16775;SDS011;8505;49.456;8.164;2022-12-18T08:46:24;63.08;;;29.38;;
16775;SDS011;8505;49.456;8.164;2022-12-18T08:48:53;64.05;;;29.15;;
16775;SDS011;8505;49.456;8.164;2022-12-18T08:51:21;58.90;;;28.83;;
16775;SDS011;8505;49.456;8.164;2022-12-18T08:53:49;67.70;;;30.77;;
16775;SDS011;8505;49.456;8.164;2022-12-18T08:56:18;67.90;;;30.90;;
16775;SDS011;8505;49.456;8.164;2022-12-18T08:58:46;63.63;;;30.02;;
16775;SDS011;8505;49.456;8.164;2022-12-18T09:01:13;62.47;;;28.08;;
16775;SDS011;8505;49.456;8.164;2022-12-18T09:03:41;66.68;;;29.98;;
16775;SDS011;8505;49.456;8.164;2022-12-18T09:06:13;65.82;;;31.33;;
16775;SDS011;8505;49.456;8.164;2022-12-18T09:08:41;65.72;;;30.50;;
16775;SDS011;8505;49.456;8.164;2022-12-18T09:11:18;65.07;;;29.80;;
16775;SDS011;8505;49.456;8.164;2022-12-18T09:13:49;66.32;;;30.02;;
16775;SDS011;8505;49.456;8.164;2022-12-18T09:16:18;66.88;;;32.58;;
16775;SDS011;8505;49.456;8.164;2022-12-18T09:18:47;66.25;;;31.35;;
16775;SDS011;8505;49.456;8.164;2022-12-18T09:21:16;64.13;;;30.70;;
16775;SDS011;8505;49.456;8.164;2022-12-18T09:23:48;66.78;;;31.63;;
16775;SDS011;8505;49.456;8.164;2022-12-18T09:26:16;66.40;;;31.05;;
16775;SDS011;8505;49.456;8.164;2022-12-18T09:28:45;67.05;;;31.77;;
16775;SDS011;8505;49.456;8.164;2022-12-18T09:31:16;66.22;;;31.92;;
16775;SDS011;8505;49.456;8.164;2022-12-18T09:33:45;66.68;;;32.63;;
16775;SDS011;8505;49.456;8.164;2022-12-18T09:36:14;64.70;;;30.10;;
16775;SDS011;8505;49.456;8.164;2022-12-18T09:38:43;64.77;;;31.57;;
16775;SDS011;8505;49.456;8.164;2022-12-18T09:41:16;62.63;;;30.35;;
16775;SDS011;8505;49.456;8.164;2022-12-18T09:43:58;63.53;;;29.42;;
16775;SDS011;8505;49.456;8.164;2022-12-18T09:46:30;62.17;;;29.80;;
16775;SDS011;8505;49.456;8.164;2022-12-18T09:49:02;64.47;;;30.08;;
16775;SDS011;8505;49.456;8.164;2022-12-18T09:51:35;65.13;;;30.45;;
16775;SDS011;8505;49.456;8.164;2022-12-18T09:54:07;63.97;;;29.52;;
16775;SDS011;8505;49.456;8.164;2022-12-18T09:56:41;66.55;;;31.65;;
16775;SDS011;8505;49.456;8.164;2022-12-18T09:59:15;66.53;;;30.42;;
16775;SDS011;8505;49.456;8.164;2022-12-18T10:01:48;62.05;;;30.67;;
16775;SDS011;8505;49.456;8.164;2022-12-18T10:04:16;65.28;;;31.02;;
16775;SDS011;8505;49.456;8.164;2022-12-18T10:06:45;67.18;;;30.95;;
16775;SDS011;8505;49.456;8.164;2022-12-18T10:09:19;62.67;;;29.83;;
16775;SDS011;8505;49.456;8.164;2022-12-18T10:11:59;62.42;;;30.08;;
16775;SDS011;8505;49.456;8.164;2022-12-18T10:14:40;62.85;;;30.48;;
16775;SDS011;8505;49.456;8.164;2022-12-18T10:17:15;64.22;;;30.60;;
16775;SDS011;8505;49.456;8.164;2022-12-18T10:19:52;60.30;;;29.55;;
16775;SDS011;8505;49.456;8.164;2022-12-18T10:22:26;63.17;;;29.88;;
16775;SDS011;8505;49.456;8.164;2022-12-18T10:25:10;59.65;;;28.90;;
16775;SDS011;8505;49.456;8.164;2022-12-18T10:27:44;61.67;;;29.85;;
16775;SDS011;8505;49.456;8.164;2022-12-18T10:30:14;61.55;;;29.75;;
16775;SDS011;8505;49.456;8.164;2022-12-18T10:32:44;63.17;;;31.13;;
16775;SDS011;8505;49.456;8.164;2022-12-18T10:35:14;61.28;;;30.70;;
16775;SDS011;8505;49.456;8.164;2022-12-18T10:40:49;62.92;;;30.88;;
16775;SDS011;8505;49.456;8.164;2022-12-18T10:43:23;65.47;;;31.03;;
16775;SDS011;8505;49.456;8.164;2022-12-18T10:46:05;60.00;;;29.75;;
16775;SDS011;8505;49.456;8.164;2022-12-18T10:48:48;62.05;;;30.55;;
16775;SDS011;8505;49.456;8.164;2022-12-18T10:51:19;62.15;;;30.65;;
16775;SDS011;8505;49.456;8.164;2022-12-18T10:53:54;60.40;;;30.48;;
16775;SDS011;8505;49.456;8.164;2022-12-18T10:56:24;60.90;;;29.65;;
16775;SDS011;8505;49.456;8.164;2022-12-18T10:58:58;64.85;;;30.50;;
16775;SDS011;8505;49.456;8.164;2022-12-18T11:01:29;65.70;;;31.73;;
16775;SDS011;8505;49.456;8.164;2022-12-18T11:04:13;63.10;;;30.15;;
16775;SDS011;8505;49.456;8.164;2022-12-18T11:06:52;62.78;;;29.75;;
16775;SDS011;8505;49.456;8.164;2022-12-18T11:09:26;71.13;;;30.92;;
16775;SDS011;8505;49.456;8.164;2022-12-18T11:11:55;68.60;;;32.53;;
16775;SDS011;8505;49.456;8.164;2022-12-18T11:14:26;68.35;;;32.95;;
16775;SDS011;8505;49.456;8.164;2022-12-18T11:16:56;66.03;;;32.47;;
16775;SDS011;8505;49.456;8.164;2022-12-18T11:19:51;67.80;;;30.92;;
16775;SDS011;8505;49.456;8.164;2022-12-18T11:22:21;68.30;;;32.53;;
16775;SDS011;8505;49.456;8.164;2022-12-18T11:24:54;63.50;;;31.27;;
16775;SDS011;8505;49.456;8.164;2022-12-18T11:27:48;66.97;;;31.48;;
16775;SDS011;8505;49.456;8.164;2022-12-18T11:30:21;64.93;;;30.42;;
16775;SDS011;8505;49.456;8.164;2022-12-18T11:32:52;61.97;;;29.75;;
16775;SDS011;8505;49.456;8.164;2022-12-18T11:35:28;62.60;;;30.17;;
16775;SDS011;8505;49.456;8.164;2022-12-18T11:38:04;61.97;;;30.15;;
16775;SDS011;8505;49.456;8.164;2022-12-18T11:40:50;66.07;;;31.13;;
16775;SDS011;8505;49.456;8.164;2022-12-18T11:43:25;64.97;;;31.38;;
16775;SDS011;8505;49.456;8.164;2022-12-18T11:45:56;68.63;;;33.30;;
16775;SDS011;8505;49.456;8.164;2022-12-18T11:48:30;68.35;;;32.72;;
16775;SDS011;8505;49.456;8.164;2022-12-18T11:51:02;66.47;;;31.80;;
16775;SDS011;8505;49.456;8.164;2022-12-18T11:53:32;62.97;;;30.10;;
16775;SDS011;8505;49.456;8.164;2022-12-18T11:56:06;65.97;;;31.88;;
16775;SDS011;8505;49.456;8.164;2022-12-18T11:58:45;69.68;;;32.25;;
16775;SDS011;8505;49.456;8.164;2022-12-18T12:01:17;63.80;;;30.60;;
16775;SDS011;8505;49.456;8.164;2022-12-18T12:04:10;65.20;;;31.25;;
16775;SDS011;8505;49.456;8.164;2022-12-18T12:06:55;65.22;;;31.73;;
16775;SDS011;8505;49.456;8.164;2022-12-18T12:09:32;66.63;;;31.58;;
16775;SDS011;8505;49.456;8.164;2022-12-18T12:12:14;62.43;;;30.03;;
16775;SDS011;8505;49.456;8.164;2022-12-18T12:14:54;65.27;;;31.23;;
16775;SDS011;8505;49.456;8.164;2022-12-18T12:17:31;64.90;;;31.17;;
16775;SDS011;8505;49.456;8.164;2022-12-18T12:20:08;67.20;;;32.00;;
16775;SDS011;8505;49.456;8.164;2022-12-18T12:22:45;63.55;;;29.92;;
16775;SDS011;8505;49.456;8.164;2022-12-18T12:25:31;63.60;;;30.67;;
16775;SDS011;8505;49.456;8.164;2022-12-18T12:28:10;64.40;;;30.75;;
16775;SDS011;8505;49.456;8.164;2022-12-18T12:30:49;66.25;;;31.10;;
16775;SDS011;8505;49.456;8.164;2022-12-18T12:33:28;66.82;;;31.65;;
16775;SDS011;8505;49.456;8.164;2022-12-18T12:36:07;69.55;;;32.25;;
16775;SDS011;8505;49.456;8.164;2022-12-18T12:38:44;62.17;;;29.50;;
16775;SDS011;8505;49.456;8.164;2022-12-18T12:41:18;65.35;;;31.65;;
16775;SDS011;8505;49.456;8.164;2022-12-18T12:44:07;63.95;;;31.02;;
16775;SDS011;8505;49.456;8.164;2022-12-18T12:46:42;64.32;;;30.05;;
16775;SDS011;8505;49.456;8.164;2022-12-18T12:49:12;68.47;;;32.10;;
16775;SDS011;8505;49.456;8.164;2022-12-18T12:51:45;64.60;;;31.67;;
16775;SDS011;8505;49.456;8.164;2022-12-18T12:54:23;64.88;;;31.98;;
16775;SDS011;8505;49.456;8.164;2022-12-18T12:56:57;68.97;;;33.40;;
16775;SDS011;8505;49.456;8.164;2022-12-18T12:59:30;67.37;;;32.37;;
16775;SDS011;8505;49.456;8.164;2022-12-18T13:02:10;66.65;;;32.95;;
16775;SDS011;8505;49.456;8.164;2022-12-18T13:04:52;67.22;;;32.40;;
16775;SDS011;8505;49.456;8.164;2022-12-18T13:07:27;61.53;;;30.23;;
16775;SDS011;8505;49.456;8.164;2022-12-18T13:10:11;67.05;;;31.50;;
16775;SDS011;8505;49.456;8.164;2022-12-18T13:12:51;65.65;;;31.75;;
16775;SDS011;8505;49.456;8.164;2022-12-18T13:15:29;65.57;;;32.40;;
16775;SDS011;8505;49.456;8.164;2022-12-18T13:18:17;68.93;;;31.23;;
16775;SDS011;8505;49.456;8.164;2022-12-18T13:20:49;66.43;;;30.80;;
16775;SDS011;8505;49.456;8.164;2022-12-18T13:23:32;65.75;;;30.70;;
16775;SDS011;8505;49.456;8.164;2022-12-18T13:28:59;67.78;;;33.33;;
16775;SDS011;8505;49.456;8.164;2022-12-18T13:34:35;68.80;;;32.20;;
16775;SDS011;8505;49.456;8.164;2022-12-18T13:43:30;65.25;;;31.27;;
16775;SDS011;8505;49.456;8.164;2022-12-18T13:46:02;64.28;;;30.25;;
16775;SDS011;8505;49.456;8.164;2022-12-18T13:48:33;66.88;;;30.52;;
16775;SDS011;8505;49.456;8.164;2022-12-18T13:51:03;66.93;;;32.22;;
16775;SDS011;8505;49.456;8.164;2022-12-18T13:53:34;64.18;;;30.80;;
16775;SDS011;8505;49.456;8.164;2022-12-18T13:56:06;75.72;;;38.70;;
16775;SDS011;8505;49.456;8.164;2022-12-18T13:58:35;64.20;;;31.23;;
16775;SDS011;8505;49.456;8.164;2022-12-18T14:01:04;63.20;;;31.02;;
16775;SDS011;8505;49.456;8.164;2022-12-18T14:03:33;67.30;;;32.53;;
16775;SDS011;8505;49.456;8.164;2022-12-18T14:06:02;64.40;;;30.83;;
16775;SDS011;8505;49.456;8.164;2022-12-18T14:08:36;67.65;;;32.15;;
16775;SDS011;8505;49.456;8.164;2022-12-18T14:11:07;63.30;;;29.70;;
16775;SDS011;8505;49.456;8.164;2022-12-18T14:13:49;65.07;;;30.23;;
16775;SDS011;8505;49.456;8.164;2022-12-18T14:16:17;64.25;;;30.38;;
16775;SDS011;8505;49.456;8.164;2022-12-18T14:18:46;66.40;;;31.73;;
16775;SDS011;8505;49.456;8.164;2022-12-18T14:21:23;76.22;;;36.35;;
16775;SDS011;8505;49.456;8.164;2022-12-18T14:24:03;65.83;;;31.70;;
16775;SDS011;8505;49.456;8.164;2022-12-18T14:26:32;60.03;;;28.92;;
16775;SDS011;8505;49.456;8.164;2022-12-18T14:29:17;62.97;;;30.27;;
16775;SDS011;8505;49.456;8.164;2022-12-18T14:34:33;64.28;;;31.33;;
16775;SDS011;8505;49.456;8.164;2022-12-18T14:37:01;60.27;;;28.77;;
16775;SDS011;8505;49.456;8.164;2022-12-18T14:39:28;59.97;;;29.13;;
16775;SDS011;8505;49.456;8.164;2022-12-18T14:41:56;60.78;;;29.52;;
16775;SDS011;8505;49.456;8.164;2022-12-18T14:44:25;62.35;;;29.42;;
16775;SDS011;8505;49.456;8.164;2022-12-18T14:47:04;67.47;;;31.23;;
16775;SDS011;8505;49.456;8.164;2022-12-18T14:49:32;62.42;;;30.48;;
16775;SDS011;8505;49.456;8.164;2022-12-18T14:52:03;61.67;;;29.13;;
16775;SDS011;8505;49.456;8.164;2022-12-18T14:54:33;60.00;;;28.63;;
16775;SDS011;8505;49.456;8.164;2022-12-18T14:57:05;64.15;;;29.83;;
16775;SDS011;8505;49.456;8.164;2022-12-18T14:59:44;61.33;;;28.33;;
16775;SDS011;8505;49.456;8.164;2022-12-18T15:02:13;61.58;;;29.58;;
16775;SDS011;8505;49.456;8.164;2022-12-18T15:04:48;64.30;;;29.58;;
16775;SDS011;8505;49.456;8.164;2022-12-18T15:07:27;65.50;;;29.97;;
16775;SDS011;8505;49.456;8.164;2022-12-18T15:10:09;63.03;;;29.00;;
16775;SDS011;8505;49.456;8.164;2022-12-18T15:12:39;66.63;;;30.73;;
16775;SDS011;8505;49.456;8.164;2022-12-18T15:18:15;64.57;;;30.90;;
16775;SDS011;8505;49.456;8.164;2022-12-18T15:20:46;64.97;;;31.35;;
16775;SDS011;8505;49.456;8.164;2022-12-18T15:23:19;69.30;;;33.00;;
16775;SDS011;8505;49.456;8.164;2022-12-18T15:25:49;96.65;;;43.67;;